Time;durP1;ratioP1;P1;durP2;ratioP2;P2;SDS_P1;SDS_P2;PMS_P1;PMS_P2;Temp;Humidity;BMP_temperature;BMP_pressure;BME280_temperature;BME280_humidity;BME280_pressure;Samples;Min_cycle;Max_cycle;Signal;HPM_P1;HPM_P2
2022/07/09 00:02:11;;;;;;;3.00;1.30;;;14.90;95.90;;;;;;606893;235;26632;-71
2022/07/09 00:04:38;;;;;;;1.87;1.00;;;14.80;95.70;;;;;;608582;235;26963;-71
2022/07/09 00:07:05;;;;;;;1.35;1.17;;;14.80;95.50;;;;;;604578;235;26590;-71
2022/07/09 00:09:32;;;;;;;1.30;1.02;;;14.80;95.60;;;;;;610337;235;26847;-71
2022/07/09 00:12:00;;;;;;;1.42;1.30;;;14.80;95.70;;;;;;602745;238;26650;-71
2022/07/09 00:14:27;;;;;;;1.40;1.30;;;14.70;95.80;;;;;;608802;235;26986;-71
2022/07/09 00:16:55;;;;;;;1.45;1.17;;;14.70;96.00;;;;;;606177;235;26595;-71
2022/07/09 00:19:22;;;;;;;1.20;1.10;;;14.60;96.10;;;;;;605272;235;26632;-71
2022/07/09 00:21:49;;;;;;;2.58;1.50;;;14.50;96.10;;;;;;603537;235;26640;-71
2022/07/09 00:24:16;;;;;;;1.33;1.10;;;14.50;96.10;;;;;;602211;238;26893;-71
2022/07/09 00:26:43;;;;;;;3.53;1.37;;;14.40;96.30;;;;;;607955;235;26632;-71
2022/07/09 00:29:11;;;;;;;1.37;1.15;;;14.40;96.50;;;;;;604332;235;26951;-71
2022/07/09 00:31:38;;;;;;;1.67;1.40;;;14.40;96.40;;;;;;602457;237;26633;-71
2022/07/09 00:34:05;;;;;;;1.83;1.30;;;14.40;96.60;;;;;;607257;235;26854;-72
2022/07/09 00:36:32;;;;;;;1.92;1.30;;;14.30;96.60;;;;;;602164;238;26594;-71
2022/07/09 00:38:59;;;;;;;5.43;1.20;;;14.20;96.80;;;;;;605358;234;26836;-71
2022/07/09 00:41:27;;;;;;;1.05;1.00;;;14.20;97.00;;;;;;604696;234;26626;-71
2022/07/09 00:43:55;;;;;;;1.60;1.30;;;14.10;97.10;;;;;;605721;235;26582;-71
2022/07/09 00:46:23;;;;;;;1.62;1.30;;;14.10;97.40;;;;;;603962;235;26586;-71
2022/07/09 00:48:51;;;;;;;1.48;1.20;;;14.00;97.70;;;;;;608446;236;26634;-71
2022/07/09 00:51:18;;;;;;;1.20;1.20;;;14.00;97.60;;;;;;605339;235;26618;-71
2022/07/09 00:53:46;;;;;;;1.67;1.37;;;14.00;97.80;;;;;;608587;236;26599;-72
2022/07/09 00:56:13;;;;;;;1.98;1.40;;;13.90;98.00;;;;;;604776;236;26826;-72
2022/07/09 00:58:40;;;;;;;1.20;1.10;;;13.90;98.20;;;;;;606631;235;26578;-71
2022/07/09 01:01:07;;;;;;;1.80;1.20;;;13.90;98.30;;;;;;606393;235;26835;-72
2022/07/09 01:03:34;;;;;;;1.37;1.27;;;13.90;98.50;;;;;;608408;235;26640;-72
2022/07/09 01:06:02;;;;;;;2.45;1.37;;;13.80;98.80;;;;;;601742;237;26828;-72
2022/07/09 01:08:29;;;;;;;3.00;1.62;;;13.70;99.20;;;;;;607469;235;26600;-72
2022/07/09 01:10:56;;;;;;;1.37;1.27;;;13.70;99.30;;;;;;602432;236;26896;-72
2022/07/09 01:13:24;;;;;;;1.23;1.10;;;13.70;99.90;;;;;;609394;235;26640;-72
2022/07/09 01:15:52;;;;;;;1.25;1.10;;;13.60;99.80;;;;;;608403;235;26619;-72
2022/07/09 01:18:19;;;;;;;2.80;1.40;;;13.60;99.90;;;;;;606262;235;27010;-72
2022/07/09 01:20:47;;;;;;;2.10;1.20;;;13.60;99.90;;;;;;603613;232;26860;-71
2022/07/09 01:23:14;;;;;;;1.70;1.25;;;13.50;99.90;;;;;;605505;236;26648;-72
2022/07/09 01:25:43;;;;;;;1.95;1.05;;;13.50;99.90;;;;;;609929;235;26576;-72
2022/07/09 01:28:10;;;;;;;2.65;1.20;;;13.50;99.90;;;;;;610247;235;26616;-71
2022/07/09 01:30:38;;;;;;;1.50;1.10;;;13.40;99.90;;;;;;606924;235;26655;-72
2022/07/09 01:33:05;;;;;;;2.33;1.35;;;13.40;99.90;;;;;;602534;236;26646;-72
2022/07/09 01:35:33;;;;;;;1.92;1.20;;;13.40;99.90;;;;;;602176;237;26638;-71
2022/07/09 01:38:00;;;;;;;4.18;1.50;;;13.40;99.90;;;;;;604533;235;26807;-72
2022/07/09 01:40:27;;;;;;;3.50;1.50;;;13.30;99.90;;;;;;605689;236;26622;-73
2022/07/09 01:42:55;;;;;;;1.73;1.20;;;13.30;99.90;;;;;;606268;235;26759;-71
2022/07/09 01:45:22;;;;;;;1.73;1.30;;;13.30;99.90;;;;;;604915;234;27295;-78
2022/07/09 01:48:02;;;;;;;5.70;2.15;;;13.30;99.90;;;;;;603681;238;26577;-82
2022/07/09 01:50:29;;;;;;;3.00;1.40;;;13.30;99.90;;;;;;606162;233;26600;-71
2022/07/09 01:52:56;;;;;;;9.30;1.95;;;13.20;99.90;;;;;;603835;235;26647;-71
2022/07/09 01:55:23;;;;;;;5.28;1.70;;;13.20;99.90;;;;;;604791;237;26839;-72
2022/07/09 01:57:50;;;;;;;8.95;2.20;;;13.10;99.90;;;;;;605168;236;26598;-74
2022/07/09 02:00:19;;;;;;;2.72;1.35;;;13.10;99.90;;;;;;604789;234;27042;-74
2022/07/09 02:02:45;;;;;;;2.03;1.45;;;13.10;99.90;;;;;;607035;236;26579;-74
2022/07/09 02:05:13;;;;;;;4.05;1.50;;;13.00;99.90;;;;;;604579;235;27253;-74
2022/07/09 02:07:40;;;;;;;3.17;1.35;;;13.00;99.90;;;;;;602199;235;26984;-74
2022/07/09 02:10:08;;;;;;;3.37;1.80;;;13.00;99.90;;;;;;608151;235;26642;-74
2022/07/09 02:12:35;;;;;;;1.87;1.40;;;12.90;99.90;;;;;;609534;236;26636;-74
2022/07/09 02:15:02;;;;;;;2.05;1.20;;;12.90;99.90;;;;;;606276;235;26818;-74
2022/07/09 02:17:30;;;;;;;4.25;1.50;;;12.90;99.90;;;;;;611337;235;26593;-74
2022/07/09 02:19:58;;;;;;;3.85;1.70;;;12.80;99.90;;;;;;606308;236;26847;-73
2022/07/09 02:22:25;;;;;;;2.92;1.55;;;12.80;99.90;;;;;;604818;237;26769;-74
2022/07/09 02:24:52;;;;;;;1.45;1.30;;;12.80;99.90;;;;;;604521;236;26583;-74
2022/07/09 02:27:19;;;;;;;1.58;1.33;;;12.80;99.90;;;;;;605473;235;27194;-74
2022/07/09 02:29:46;;;;;;;3.70;1.60;;;12.80;99.90;;;;;;606101;236;26577;-74
2022/07/09 02:32:14;;;;;;;1.80;1.25;;;12.70;99.90;;;;;;603880;236;26919;-74
2022/07/09 02:34:42;;;;;;;1.35;1.25;;;12.70;99.90;;;;;;602215;238;26595;-74
2022/07/09 02:37:10;;;;;;;2.50;1.60;;;12.70;99.90;;;;;;602818;237;26602;-74
2022/07/09 02:39:37;;;;;;;2.87;1.37;;;12.60;99.90;;;;;;601585;237;26605;-74
2022/07/09 02:42:05;;;;;;;2.53;1.48;;;12.70;99.90;;;;;;603684;235;26858;-75
2022/07/09 02:44:33;;;;;;;2.17;1.17;;;12.80;99.90;;;;;;603234;238;26585;-75
2022/07/09 02:47:00;;;;;;;3.85;1.30;;;12.90;99.90;;;;;;601569;237;26626;-73
2022/07/09 02:49:29;;;;;;;2.50;1.30;;;13.10;99.90;;;;;;603939;236;26631;-73
2022/07/09 02:51:57;;;;;;;1.90;1.35;;;13.00;99.90;;;;;;602489;237;26654;-75
2022/07/09 02:54:22;;;;;;;1.75;1.50;;;13.10;99.90;;;;;;602843;236;26613;-74
2022/07/09 02:56:49;;;;;;;2.80;1.75;;;13.20;99.90;;;;;;604187;235;26949;-74
2022/07/09 02:59:17;;;;;;;1.77;1.42;;;13.30;99.90;;;;;;601900;238;26613;-74
2022/07/09 03:01:45;;;;;;;2.87;1.40;;;13.30;99.90;;;;;;604808;235;26872;-73
2022/07/09 03:04:13;;;;;;;3.22;1.20;;;13.40;99.90;;;;;;605747;237;26867;-74
2022/07/09 03:06:40;;;;;;;1.60;1.50;;;13.30;99.90;;;;;;603182;235;26829;-74
2022/07/09 03:09:07;;;;;;;1.73;1.20;;;13.40;99.90;;;;;;605281;235;26576;-74
2022/07/09 03:11:34;;;;;;;1.80;1.50;;;13.50;99.90;;;;;;602498;236;27315;-75
2022/07/09 03:14:02;;;;;;;1.60;1.50;;;13.50;99.90;;;;;;603723;238;26649;-74
2022/07/09 03:16:29;;;;;;;2.22;1.33;;;13.50;99.90;;;;;;603461;238;26592;-74
2022/07/09 03:18:56;;;;;;;6.70;2.10;;;13.60;99.90;;;;;;602252;236;26590;-73
2022/07/09 03:21:24;;;;;;;9.60;2.03;;;13.60;99.90;;;;;;610171;235;26900;-74
2022/07/09 03:23:51;;;;;;;6.18;2.30;;;13.60;99.90;;;;;;607643;232;26574;-73
2022/07/09 03:26:18;;;;;;;11.65;2.72;;;13.60;99.90;;;;;;603256;236;26835;-74
2022/07/09 03:28:46;;;;;;;10.82;1.98;;;13.60;99.90;;;;;;610068;235;26651;-74
2022/07/09 03:31:14;;;;;;;7.12;1.80;;;13.70;99.90;;;;;;610225;234;26695;-74
2022/07/09 03:33:41;;;;;;;7.90;1.98;;;13.70;99.90;;;;;;610138;235;26620;-74
2022/07/09 03:36:09;;;;;;;6.65;1.83;;;13.70;99.90;;;;;;610038;235;26871;-74
2022/07/09 03:38:36;;;;;;;6.15;1.77;;;13.80;99.90;;;;;;609722;236;26591;-74
2022/07/09 03:41:03;;;;;;;6.32;1.70;;;13.90;99.90;;;;;;609834;235;26964;-74
2022/07/09 03:43:30;;;;;;;6.65;2.00;;;14.00;99.90;;;;;;609857;236;26597;-74
2022/07/09 03:45:58;;;;;;;4.05;1.90;;;13.90;99.90;;;;;;609805;236;26585;-73
2022/07/09 03:48:26;;;;;;;5.50;1.90;;;14.00;99.90;;;;;;609857;236;26676;-74
2022/07/09 03:50:54;;;;;;;5.55;1.42;;;14.00;99.90;;;;;;609851;235;26625;-74
2022/07/09 03:53:21;;;;;;;5.85;1.80;;;14.00;99.90;;;;;;609807;230;26910;-74
2022/07/09 03:55:49;;;;;;;4.00;1.70;;;14.10;99.90;;;;;;609739;235;26592;-73
2022/07/09 03:58:16;;;;;;;3.80;1.67;;;14.20;99.70;;;;;;609672;236;27389;-73
2022/07/09 04:00:43;;;;;;;6.15;1.87;;;14.10;99.50;;;;;;609741;235;26609;-74
2022/07/09 04:03:10;;;;;;;3.78;1.55;;;14.20;99.40;;;;;;609779;235;26992;-73
2022/07/09 04:05:38;;;;;;;5.07;1.98;;;14.10;99.10;;;;;;609735;235;26540;-73
2022/07/09 04:08:05;;;;;;;5.40;1.60;;;14.10;99.00;;;;;;609677;235;26853;-74
2022/07/09 04:10:33;;;;;;;3.97;1.33;;;14.20;98.90;;;;;;609853;236;27246;-73
2022/07/09 04:13:00;;;;;;;2.70;1.45;;;14.20;98.90;;;;;;610978;233;26894;-73
2022/07/09 04:15:27;;;;;;;4.20;1.58;;;14.20;98.70;;;;;;611065;234;26626;-73
2022/07/09 04:17:55;;;;;;;1.52;1.42;;;14.20;98.70;;;;;;610772;235;26572;-73
2022/07/09 04:20:23;;;;;;;3.47;1.40;;;14.30;98.60;;;;;;610765;235;26849;-73
2022/07/09 04:22:49;;;;;;;2.53;1.50;;;14.30;98.60;;;;;;610315;235;26588;-74
2022/07/09 04:25:16;;;;;;;4.70;1.70;;;14.40;98.40;;;;;;610509;236;26921;-72
2022/07/09 04:27:43;;;;;;;2.78;1.48;;;14.60;98.00;;;;;;610450;236;26587;-71
2022/07/09 04:30:11;;;;;;;3.58;1.83;;;14.60;97.80;;;;;;610289;236;26873;-71
2022/07/09 04:32:38;;;;;;;3.05;1.50;;;14.50;97.80;;;;;;610113;236;26868;-72
2022/07/09 04:35:07;;;;;;;3.05;1.90;;;14.60;97.80;;;;;;610124;236;26622;-71
2022/07/09 04:37:33;;;;;;;2.25;1.52;;;14.60;97.80;;;;;;610162;235;26642;-71
2022/07/09 04:40:01;;;;;;;2.40;1.33;;;14.50;98.00;;;;;;610196;234;26652;-71
2022/07/09 04:42:28;;;;;;;3.15;1.45;;;14.50;97.90;;;;;;610150;235;26653;-71
2022/07/09 04:44:57;;;;;;;4.40;1.70;;;14.50;98.00;;;;;;610129;235;26631;-72
2022/07/09 04:47:24;;;;;;;2.70;1.52;;;14.50;98.20;;;;;;610172;236;26649;-71
2022/07/09 04:49:52;;;;;;;2.72;1.50;;;14.70;98.10;;;;;;609931;235;26585;-71
2022/07/09 04:52:20;;;;;;;3.62;1.58;;;14.80;97.70;;;;;;609983;236;26588;-71
2022/07/09 04:54:47;;;;;;;2.53;1.58;;;14.80;97.70;;;;;;609960;231;26584;-71
2022/07/09 04:57:14;;;;;;;4.65;1.75;;;14.80;97.90;;;;;;609894;236;26559;-72
2022/07/09 04:59:41;;;;;;;2.03;1.42;;;14.90;97.60;;;;;;609944;236;26818;-71
2022/07/09 05:02:09;;;;;;;1.77;1.62;;;14.90;97.50;;;;;;609923;235;26569;-71
2022/07/09 05:04:36;;;;;;;1.95;1.27;;;15.00;97.30;;;;;;609978;235;26837;-71
2022/07/09 05:07:03;;;;;;;2.90;1.30;;;15.10;97.20;;;;;;609959;235;26589;-71
2022/07/09 05:09:30;;;;;;;2.12;1.48;;;14.90;97.20;;;;;;609970;236;26630;-71
2022/07/09 05:11:58;;;;;;;1.50;1.40;;;14.90;97.90;;;;;;609875;235;26643;-71
2022/07/09 05:14:25;;;;;;;1.40;1.40;;;14.90;98.10;;;;;;609982;236;26604;-71
2022/07/09 05:16:53;;;;;;;2.70;1.40;;;14.90;97.90;;;;;;609963;236;26584;-72
2022/07/09 05:19:21;;;;;;;2.17;1.12;;;15.10;98.10;;;;;;609940;235;26581;-71
2022/07/09 05:21:48;;;;;;;3.28;1.60;;;15.10;97.80;;;;;;609944;235;26622;-71
2022/07/09 05:24:15;;;;;;;2.15;1.70;;;15.20;97.70;;;;;;610934;233;26634;-71
2022/07/09 05:26:42;;;;;;;1.90;1.30;;;15.30;97.70;;;;;;611242;234;26973;-71
2022/07/09 05:29:09;;;;;;;2.67;1.42;;;15.50;97.60;;;;;;610813;235;26627;-71
2022/07/09 05:31:37;;;;;;;2.60;1.55;;;15.60;97.20;;;;;;610710;235;26836;-71
2022/07/09 05:34:05;;;;;;;2.10;1.80;;;15.70;97.30;;;;;;610504;235;26652;-71
2022/07/09 05:36:32;;;;;;;1.87;1.48;;;15.60;97.20;;;;;;610438;236;26625;-71
2022/07/09 05:39:00;;;;;;;2.45;1.40;;;15.60;97.30;;;;;;610253;235;26619;-71
2022/07/09 05:41:27;;;;;;;2.05;1.48;;;15.60;97.40;;;;;;610095;230;26615;-71
2022/07/09 05:43:54;;;;;;;2.28;1.58;;;15.90;97.20;;;;;;609981;235;26845;-71
2022/07/09 05:46:21;;;;;;;3.55;1.60;;;16.10;96.80;;;;;;610014;236;26622;-71
2022/07/09 05:48:48;;;;;;;2.28;1.40;;;16.20;96.20;;;;;;610154;235;26905;-71
2022/07/09 05:51:16;;;;;;;1.42;1.30;;;16.10;96.30;;;;;;610179;236;26642;-71
2022/07/09 05:53:43;;;;;;;1.77;1.20;;;16.30;96.00;;;;;;610140;235;26674;-71
2022/07/09 05:56:10;;;;;;;2.78;1.75;;;16.70;95.20;;;;;;610130;236;26646;-71
2022/07/09 05:58:38;;;;;;;1.37;1.30;;;16.90;94.20;;;;;;610155;236;26633;-71
2022/07/09 06:01:06;;;;;;;2.25;1.52;;;16.80;94.10;;;;;;609888;236;26612;-71
2022/07/09 06:03:34;;;;;;;2.28;1.45;;;16.50;94.50;;;;;;609849;235;26870;-71
2022/07/09 06:06:01;;;;;;;2.35;1.40;;;16.60;94.70;;;;;;609875;235;26597;-71
2022/07/09 06:08:28;;;;;;;2.92;1.50;;;16.70;94.20;;;;;;609848;235;26599;-72
2022/07/09 06:10:56;;;;;;;1.70;1.60;;;16.90;93.60;;;;;;609912;236;26631;-71
2022/07/09 06:13:24;;;;;;;4.25;1.62;;;17.00;93.20;;;;;;609910;235;26649;-70
2022/07/09 06:15:51;;;;;;;1.30;1.20;;;17.00;93.20;;;;;;609852;236;26577;-71
2022/07/09 06:18:18;;;;;;;2.05;1.58;;;17.00;93.40;;;;;;609728;236;26843;-71
2022/07/09 06:20:46;;;;;;;2.15;1.40;;;17.00;93.20;;;;;;609799;235;26825;-70
2022/07/09 06:23:13;;;;;;;1.65;1.17;;;17.10;93.00;;;;;;609831;235;26799;-71
2022/07/09 06:25:40;;;;;;;3.33;1.55;;;17.20;92.80;;;;;;609885;230;26593;-71
2022/07/09 06:28:07;;;;;;;2.08;1.30;;;17.30;92.70;;;;;;609831;235;27197;-71
2022/07/09 06:30:34;;;;;;;2.30;1.35;;;17.50;92.50;;;;;;609842;236;26609;-71
2022/07/09 06:33:02;;;;;;;3.25;1.27;;;17.60;92.10;;;;;;609860;236;26904;-71
2022/07/09 06:35:30;;;;;;;1.50;1.40;;;17.60;91.70;;;;;;610577;233;26580;-71
2022/07/09 06:37:57;;;;;;;2.95;1.40;;;17.50;92.00;;;;;;611154;235;26623;-71
2022/07/09 06:40:25;;;;;;;1.45;1.33;;;17.50;91.70;;;;;;610750;235;26657;-71
2022/07/09 06:42:53;;;;;;;1.50;1.37;;;17.60;91.70;;;;;;610701;235;26587;-71
2022/07/09 06:45:20;;;;;;;2.35;1.20;;;17.60;91.70;;;;;;610530;235;26584;-71
2022/07/09 06:47:48;;;;;;;1.42;1.33;;;17.90;91.30;;;;;;610406;236;26590;-71
2022/07/09 06:50:15;;;;;;;1.80;1.42;;;17.80;91.00;;;;;;610412;236;26844;-71
2022/07/09 06:52:42;;;;;;;2.33;1.60;;;17.70;91.40;;;;;;610416;235;26587;-71
2022/07/09 06:55:10;;;;;;;1.75;1.50;;;18.10;90.70;;;;;;610130;236;26841;-71
2022/07/09 06:57:36;;;;;;;1.55;1.40;;;18.20;90.10;;;;;;610118;231;26642;-71
2022/07/09 07:00:05;;;;;;;1.90;1.40;;;18.30;89.90;;;;;;610090;235;26970;-71
2022/07/09 07:02:32;;;;;;;2.72;1.58;;;18.30;89.50;;;;;;610187;236;26953;-71
2022/07/09 07:04:59;;;;;;;2.00;1.52;;;18.10;89.20;;;;;;610120;235;26609;-71
2022/07/09 07:07:27;;;;;;;1.73;1.60;;;18.00;90.10;;;;;;610134;236;26939;-71
2022/07/09 07:09:54;;;;;;;1.98;1.50;;;18.00;90.10;;;;;;610110;235;26629;-71
2022/07/09 07:12:21;;;;;;;1.52;1.40;;;18.00;90.10;;;;;;609902;236;26948;-71
2022/07/09 07:14:48;;;;;;;2.40;1.40;;;18.40;89.00;;;;;;609882;235;26581;-71
2022/07/09 07:17:15;;;;;;;1.48;1.37;;;18.40;88.20;;;;;;609812;236;26853;-71
2022/07/09 07:19:43;;;;;;;1.85;1.70;;;18.70;87.50;;;;;;609863;236;26577;-71
2022/07/09 07:22:11;;;;;;;2.25;1.30;;;18.90;87.20;;;;;;609826;236;26585;-71
2022/07/09 07:24:39;;;;;;;3.05;1.50;;;18.90;87.20;;;;;;609869;236;26580;-71
2022/07/09 07:27:07;;;;;;;1.55;1.45;;;18.80;86.30;;;;;;609847;236;26625;-71
2022/07/09 07:29:35;;;;;;;2.22;1.20;;;18.60;86.70;;;;;;609927;236;26562;-71
2022/07/09 07:32:03;;;;;;;1.80;1.10;;;18.50;87.40;;;;;;609896;231;26604;-71
2022/07/09 07:34:30;;;;;;;1.23;1.20;;;18.50;87.40;;;;;;609984;236;26597;-71
2022/07/09 07:36:58;;;;;;;3.17;1.60;;;18.60;86.60;;;;;;609755;236;26605;-71
2022/07/09 07:39:26;;;;;;;2.45;1.30;;;18.80;86.60;;;;;;609860;235;26643;-71
2022/07/09 07:41:53;;;;;;;1.10;1.00;;;18.80;86.20;;;;;;609813;231;26605;-74
2022/07/09 07:44:22;;;;;;;2.45;1.55;;;18.80;86.40;;;;;;609871;236;26611;-68
2022/07/09 07:46:49;;;;;;;1.67;1.35;;;19.20;85.10;;;;;;610274;230;26581;-68
2022/07/09 07:49:17;;;;;;;1.62;1.20;;;19.10;84.90;;;;;;611263;234;26597;-68
2022/07/09 07:51:43;;;;;;;2.62;1.52;;;18.80;85.90;;;;;;610837;235;26679;-68
2022/07/09 07:54:11;;;;;;;1.60;1.50;;;18.90;85.80;;;;;;610704;235;26821;-68
2022/07/09 07:56:39;;;;;;;1.62;1.50;;;19.00;85.40;;;;;;610515;235;26598;-68
2022/07/09 07:59:05;;;;;;;1.60;1.50;;;19.10;85.60;;;;;;610311;236;26806;-68
2022/07/09 08:01:32;;;;;;;1.60;1.30;;;19.20;85.00;;;;;;610423;235;26600;-68
2022/07/09 08:04:00;;;;;;;1.77;1.27;;;18.80;85.30;;;;;;610455;236;26826;-68
2022/07/09 08:06:27;;;;;;;1.30;1.20;;;18.60;86.20;;;;;;610158;236;26645;-68
2022/07/09 08:08:54;;;;;;;1.50;1.20;;;18.40;87.90;;;;;;610089;236;27278;-68
2022/07/09 08:11:21;;;;;;;2.17;1.37;;;18.20;87.90;;;;;;610181;236;26650;-68
2022/07/09 08:13:48;;;;;;;2.37;1.80;;;17.80;89.60;;;;;;610119;236;27215;-68
2022/07/09 08:16:16;;;;;;;3.85;1.50;;;18.00;90.20;;;;;;610134;236;26641;-68
2022/07/09 08:18:44;;;;;;;2.97;1.45;;;18.30;89.50;;;;;;610089;236;26653;-68
2022/07/09 08:21:12;;;;;;;3.20;1.67;;;18.50;88.80;;;;;;610111;235;26638;-68
2022/07/09 08:26:13;;;;;;;1.42;1.33;;;18.80;87.90;;;;;;609895;236;26602;-68
2022/07/09 08:28:41;;;;;;;3.28;1.40;;;19.20;85.60;;;;;;609807;236;26601;-68
2022/07/09 08:31:09;;;;;;;1.50;1.40;;;19.40;84.70;;;;;;609871;235;26616;-68
2022/07/09 08:33:37;;;;;;;1.50;1.40;;;19.40;84.60;;;;;;609895;236;26585;-68
2022/07/09 08:36:04;;;;;;;2.87;1.70;;;19.30;84.30;;;;;;609810;235;26573;-68
2022/07/09 08:38:31;;;;;;;3.20;1.60;;;19.40;85.10;;;;;;609829;235;27128;-68
2022/07/09 08:40:59;;;;;;;1.50;1.40;;;20.10;82.30;;;;;;609728;235;26611;-69
2022/07/09 08:43:28;;;;;;;1.48;1.20;;;20.00;82.50;;;;;;610149;236;26586;-68
2022/07/09 08:45:55;;;;;;;2.97;1.48;;;20.00;82.50;;;;;;610244;236;26648;-68
2022/07/09 08:48:23;;;;;;;1.67;1.33;;;20.10;81.60;;;;;;610064;236;26838;-68
2022/07/09 08:50:50;;;;;;;1.60;1.50;;;20.10;81.60;;;;;;609855;235;26622;-68
2022/07/09 08:53:18;;;;;;;1.37;1.17;;;19.90;81.90;;;;;;609824;235;26909;-69
2022/07/09 08:55:45;;;;;;;1.60;1.48;;;20.00;81.70;;;;;;609873;235;26844;-69
2022/07/09 08:58:14;;;;;;;2.00;1.40;;;20.60;80.40;;;;;;610264;233;26560;-69
2022/07/09 09:00:41;;;;;;;1.40;1.30;;;20.70;79.30;;;;;;611250;234;26649;-68
2022/07/09 09:03:09;;;;;;;1.70;1.35;;;20.60;78.90;;;;;;610935;235;26608;-68
2022/07/09 09:05:37;;;;;;;1.92;1.40;;;20.50;78.80;;;;;;610766;235;26553;-69
2022/07/09 09:08:19;;;;;;;2.53;1.33;;;20.00;79.90;;;;;;610582;235;26819;-68
2022/07/09 09:10:46;;;;;;;3.03;1.98;;;19.80;81.70;;;;;;610520;236;26612;-68
2022/07/09 09:13:14;;;;;;;1.62;1.42;;;19.50;82.80;;;;;;610463;235;26541;-68
2022/07/09 09:15:41;;;;;;;1.60;1.27;;;19.20;83.50;;;;;;610341;236;26585;-68
2022/07/09 09:18:08;;;;;;;1.50;1.40;;;19.20;84.60;;;;;;610111;235;26861;-68
2022/07/09 09:20:36;;;;;;;1.33;1.25;;;19.20;84.90;;;;;;610053;236;26676;-68
2022/07/09 09:23:04;;;;;;;2.67;1.70;;;19.10;85.50;;;;;;610078;236;26628;-68
2022/07/09 09:25:31;;;;;;;1.70;1.60;;;18.70;90.10;;;;;;610084;231;26593;-69
2022/07/09 09:27:59;;;;;;;1.48;1.37;;;18.50;91.50;;;;;;610150;235;26620;-69
2022/07/09 09:30:26;;;;;;;2.97;1.73;;;18.30;93.00;;;;;;610124;235;26660;-69
2022/07/09 09:32:55;;;;;;;1.30;1.23;;;17.80;94.50;;;;;;608574;235;26936;-69
2022/07/09 09:35:22;;;;;;;2.90;1.20;;;17.50;96.70;;;;;;601531;237;26541;-69
2022/07/09 09:37:50;;;;;;;3.17;1.50;;;17.40;96.70;;;;;;601484;237;26866;-69
2022/07/09 09:40:17;;;;;;;2.17;1.45;;;17.60;98.00;;;;;;601560;237;26677;-69
2022/07/09 09:42:45;;;;;;;1.83;1.48;;;17.40;99.90;;;;;;601560;239;26636;-69
2022/07/09 09:45:15;;;;;;;1.45;1.20;;;17.50;99.90;;;;;;604980;235;27047;-70
2022/07/09 09:47:50;;;;;;;1.77;1.40;;;17.70;99.90;;;;;;607507;235;26576;-69
2022/07/09 09:50:18;;;;;;;4.47;1.45;;;18.00;99.90;;;;;;606509;235;26869;-69
2022/07/09 09:52:46;;;;;;;1.90;1.45;;;18.10;99.90;;;;;;603403;234;26840;-69
2022/07/09 09:55:13;;;;;;;2.40;1.70;;;18.60;99.90;;;;;;603263;236;26827;-69
2022/07/09 09:57:40;;;;;;;1.42;1.33;;;18.50;98.80;;;;;;604731;236;26592;-70
2022/07/09 10:00:08;;;;;;;3.05;1.48;;;18.60;99.30;;;;;;605611;236;26646;-69
2022/07/09 10:02:35;;;;;;;3.30;1.48;;;19.00;99.00;;;;;;605851;230;26651;-69
2022/07/09 10:05:04;;;;;;;1.95;1.40;;;19.20;98.30;;;;;;603250;235;26915;-69
2022/07/09 10:07:33;;;;;;;1.55;1.35;;;19.50;98.00;;;;;;602727;234;26870;-69
2022/07/09 10:10:01;;;;;;;24.37;10.55;;;20.30;94.40;;;;;;605034;233;26653;-69
2022/07/09 10:12:29;;;;;;;53.25;20.12;;;20.50;94.50;;;;;;606108;235;26642;-69
2022/07/09 10:14:57;;;;;;;75.32;30.58;;;20.90;92.90;;;;;;607589;234;26707;-65
2022/07/09 10:17:26;;;;;;;54.80;23.67;;;20.80;92.80;;;;;;606008;234;26633;-66
2022/07/09 10:19:54;;;;;;;57.85;23.15;;;20.80;92.70;;;;;;605353;235;26645;-66
2022/07/09 10:22:21;;;;;;;45.92;19.75;;;20.50;92.10;;;;;;607276;235;26826;-66
2022/07/09 10:24:52;;;;;;;49.55;19.85;;;20.30;92.00;;;;;;604765;235;26590;-67
2022/07/09 10:27:19;;;;;;;43.15;18.90;;;20.80;91.70;;;;;;605513;235;26841;-64
2022/07/09 10:29:52;;;;;;;35.42;16.02;;;21.20;90.50;;;;;;605113;236;26598;-69
2022/07/09 10:32:27;;;;;;;34.22;14.50;;;21.40;89.80;;;;;;607298;234;26636;-72
2022/07/09 10:35:01;;;;;;;30.80;13.45;;;21.40;86.90;;;;;;604684;233;26578;-68
2022/07/09 10:37:35;;;;;;;31.23;13.27;;;21.40;86.90;;;;;;604296;236;26557;-70
2022/07/09 10:40:09;;;;;;;31.98;13.02;;;21.50;86.30;;;;;;606086;234;26666;-73
2022/07/09 10:42:36;;;;;;;31.15;13.50;;;21.50;85.60;;;;;;606111;235;27048;-74
2022/07/09 10:45:04;;;;;;;26.30;10.98;;;21.30;84.90;;;;;;604475;236;26553;-72
2022/07/09 10:47:38;;;;;;;21.25;10.32;;;21.50;85.10;;;;;;604757;235;26873;-72
2022/07/09 10:50:07;;;;;;;25.48;12.10;;;21.40;83.70;;;;;;608134;235;26588;-72
2022/07/09 10:52:36;;;;;;;27.90;10.77;;;21.00;83.60;;;;;;606366;234;26669;-73
2022/07/09 10:55:03;;;;;;;19.05;9.77;;;21.00;83.60;;;;;;606240;235;26641;-71
2022/07/09 10:57:30;;;;;;;15.88;7.53;;;20.80;83.10;;;;;;603872;236;26639;-72
2022/07/09 10:59:58;;;;;;;23.92;10.88;;;21.00;82.90;;;;;;603356;236;26596;-71
2022/07/09 11:02:26;;;;;;;21.85;10.57;;;21.30;81.60;;;;;;606173;235;26617;-71
2022/07/09 11:04:55;;;;;;;23.08;9.32;;;21.70;81.00;;;;;;607779;235;26631;-71
2022/07/09 11:07:23;;;;;;;22.02;10.02;;;21.60;80.80;;;;;;605355;235;26656;-71
2022/07/09 11:09:51;;;;;;;24.08;9.73;;;21.60;78.60;;;;;;607367;234;26668;-72
2022/07/09 11:12:19;;;;;;;18.85;8.90;;;21.50;78.20;;;;;;606524;234;26611;-72
2022/07/09 11:14:46;;;;;;;17.70;9.02;;;21.50;78.00;;;;;;603654;234;26645;-71
2022/07/09 11:17:18;;;;;;;21.77;9.00;;;21.40;78.40;;;;;;603052;237;26637;-72
2022/07/09 11:19:45;;;;;;;17.20;8.15;;;21.30;79.00;;;;;;607783;235;26943;-71
2022/07/09 11:22:12;;;;;;;17.20;7.75;;;21.50;76.80;;;;;;604798;235;26628;-70
2022/07/09 11:24:39;;;;;;;19.37;7.70;;;21.20;76.90;;;;;;605414;234;26862;-69
2022/07/09 11:27:14;;;;;;;17.02;8.25;;;21.10;75.80;;;;;;604271;235;26857;-68
2022/07/09 11:29:41;;;;;;;16.33;6.82;;;21.60;73.90;;;;;;605622;234;26847;-68
2022/07/09 11:32:08;;;;;;;91.47;21.60;;;21.70;72.20;;;;;;606480;235;26602;-69
2022/07/09 11:34:36;;;;;;;141.23;32.47;;;21.90;71.50;;;;;;607035;232;26564;-69
2022/07/09 11:37:04;;;;;;;154.30;36.28;;;21.80;70.60;;;;;;606296;235;26556;-69
2022/07/09 11:39:32;;;;;;;129.87;32.00;;;22.60;69.10;;;;;;605577;235;26596;-70
2022/07/09 11:41:58;;;;;;;110.28;27.23;;;22.60;68.40;;;;;;604434;236;26566;-72
2022/07/09 11:44:27;;;;;;;85.30;22.45;;;22.60;67.20;;;;;;605130;237;26830;-70
2022/07/09 11:47:03;;;;;;;80.53;20.30;;;22.70;67.20;;;;;;605012;237;26575;-70
2022/07/09 11:49:33;;;;;;;64.10;18.40;;;22.70;65.90;;;;;;605049;232;26550;-70
2022/07/09 11:52:01;;;;;;;55.28;16.65;;;22.50;65.90;;;;;;605055;237;26630;-70
2022/07/09 11:54:30;;;;;;;73.43;17.87;;;22.30;66.30;;;;;;605043;232;26561;-70
2022/07/09 11:56:57;;;;;;;46.92;13.55;;;22.50;66.50;;;;;;605037;237;26563;-70
2022/07/09 11:59:27;;;;;;;41.58;12.27;;;22.50;66.50;;;;;;604492;237;26578;-71
2022/07/09 12:01:55;;;;;;;37.47;11.27;;;22.50;66.30;;;;;;604137;238;26860;-70
2022/07/09 12:04:21;;;;;;;24.92;9.40;;;22.50;67.50;;;;;;580286;247;26639;-70
2022/07/09 12:06:48;;;;;;;26.48;9.27;;;22.30;66.40;;;;;;580225;247;26922;-70
2022/07/09 12:09:16;;;;;;;23.30;8.35;;;21.90;67.40;;;;;;579634;248;26677;-70
2022/07/09 12:11:42;;;;;;;11.63;5.40;;;21.80;67.60;;;;;;579774;241;26738;-71
2022/07/09 12:14:11;;;;;;;17.12;7.70;;;22.10;67.70;;;;;;579897;247;26642;-70
2022/07/09 12:16:38;;;;;;;16.87;7.37;;;21.80;67.00;;;;;;579751;243;26685;-71
2022/07/09 12:19:05;;;;;;;15.95;6.50;;;21.80;67.00;;;;;;579819;247;26776;-71
2022/07/09 12:21:32;;;;;;;16.23;6.45;;;21.70;68.30;;;;;;579876;247;26691;-71
2022/07/09 12:23:59;;;;;;;11.43;5.37;;;21.50;68.20;;;;;;579877;247;26674;-71
2022/07/09 12:26:26;;;;;;;13.23;6.00;;;21.40;69.40;;;;;;579890;247;26631;-72
2022/07/09 12:28:54;;;;;;;9.15;4.80;;;21.00;73.10;;;;;;579805;247;26702;-71
2022/07/09 12:31:22;;;;;;;11.27;5.20;;;20.90;72.90;;;;;;579892;247;26730;-71
2022/07/09 12:33:49;;;;;;;14.77;4.85;;;21.10;71.90;;;;;;580783;246;26641;-71
2022/07/09 12:36:17;;;;;;;12.27;5.35;;;21.20;71.40;;;;;;580984;241;26643;-71
2022/07/09 12:38:45;;;;;;;6.97;3.95;;;21.20;72.20;;;;;;580664;241;26648;-71
2022/07/09 12:41:13;;;;;;;10.32;4.25;;;21.20;71.00;;;;;;580599;247;26708;-71
2022/07/09 12:43:41;;;;;;;14.05;4.47;;;21.20;71.00;;;;;;580430;247;26638;-71
2022/07/09 12:46:08;;;;;;;10.20;4.00;;;21.10;71.60;;;;;;580393;247;26628;-71
2022/07/09 12:48:35;;;;;;;9.38;3.75;;;20.90;71.50;;;;;;580364;247;26636;-71